RYR84SD LFOB-LEPA
Flight info
| Callsign | RYR84SD |
|---|---|
| Flight time | 1h 37m |
| Altitude | 39000 |
| Route | ERIXU DCT ETAMO DCT VALKU DCT ATSUP DCT MINSO DCT DEGOL DCT PPG DCT ALBER P84 LORES |
| Aircraft | B38M/M-SDE1FGHILORVWXY/HB1 |
Departure
| Time | 2026-05-01 13:35 |
|---|---|
| Airport | Beauvais-Tillé airport (LFOB) |
Arrival
| Time | 2026-05-01 15:13 |
|---|---|
| Airport | Palma de Mallorca Airport (LEPA) |
| Time | Latitude | Longitude | Altitude | Speed | Heading |
|---|---|---|---|---|---|
| 2026-05-01 12:58 | 49.45959 | 2.11503 | 360 ft | 0 kts | 311° |
| 2026-05-01 12:59 | 49.45954 | 2.11512 | 362 ft | 0 kts | 311° |
| 2026-05-01 12:59 | 49.45954 | 2.11511 | 362 ft | 0 kts | 311° |
| 2026-05-01 13:08 | 49.45954 | 2.11512 | 354 ft | 0 kts | 311° |
| 2026-05-01 13:08 | 49.45953 | 2.11512 | 354 ft | 0 kts | 311° |
| 2026-05-01 13:09 | 49.45954 | 2.11511 | 352 ft | 0 kts | 311° |
| 2026-05-01 13:24 | 49.45950 | 2.11518 | 352 ft | 4 kts | 310° |
| 2026-05-01 13:25 | 49.45926 | 2.11589 | 362 ft | 4 kts | 264° |
| 2026-05-01 13:25 | 49.45933 | 2.11616 | 362 ft | 0 kts | 221° |
| 2026-05-01 13:29 | 49.45906 | 2.11581 | 360 ft | 5 kts | 222° |
| 2026-05-01 13:30 | 49.45761 | 2.11375 | 356 ft | 9 kts | 224° |
| 2026-05-01 13:31 | 49.45700 | 2.11259 | 361 ft | 5 kts | 268° |
| 2026-05-01 13:31 | 49.45790 | 2.11020 | 354 ft | 10 kts | 289° |
| 2026-05-01 13:32 | 49.45761 | 2.10955 | 354 ft | 2 kts | 210° |
| 2026-05-01 13:33 | 49.45634 | 2.10869 | 363 ft | 10 kts | 168° |
| 2026-05-01 13:33 | 49.45600 | 2.10910 | 359 ft | 0 kts | 126° |
| 2026-05-01 13:34 | 49.45591 | 2.10930 | 358 ft | 7 kts | 124° |
| 2026-05-01 13:35 | 49.45269 | 2.11669 | 361 ft | 85 kts | 124° |
| 2026-05-01 13:35 | 49.44876 | 2.12580 | 363 ft | 124 kts | 123° |
| 2026-05-01 13:35 | 49.43713 | 2.15263 | 1051 ft | 159 kts | 124° |
| 2026-05-01 13:36 | 49.43071 | 2.16661 | 1199 ft | 163 kts | 140° |
| 2026-05-01 13:36 | 49.42207 | 2.17858 | 1269 ft | 173 kts | 141° |
| 2026-05-01 13:36 | 49.40390 | 2.20240 | 1292 ft | 167 kts | 141° |
| 2026-05-01 13:37 | 49.39481 | 2.21432 | 1392 ft | 176 kts | 142° |
| 2026-05-01 13:37 | 49.38545 | 2.22677 | 1718 ft | 180 kts | 142° |
| 2026-05-01 13:37 | 49.37530 | 2.23784 | 2053 ft | 178 kts | 162° |
| 2026-05-01 13:37 | 49.36358 | 2.24449 | 2224 ft | 182 kts | 161° |
| 2026-05-01 13:38 | 49.33865 | 2.25787 | 2379 ft | 200 kts | 161° |
| 2026-05-01 13:38 | 49.32519 | 2.26507 | 2405 ft | 209 kts | 162° |
| 2026-05-01 13:39 | 49.26059 | 2.29932 | 3421 ft | 259 kts | 161° |
| 2026-05-01 13:39 | 49.24344 | 2.30844 | 3899 ft | 262 kts | 161° |
| 2026-05-01 13:40 | 49.22623 | 2.31762 | 4458 ft | 263 kts | 161° |
| 2026-05-01 13:40 | 49.20886 | 2.32687 | 4951 ft | 265 kts | 161° |
| 2026-05-01 13:40 | 49.19159 | 2.33598 | 5463 ft | 266 kts | 162° |
| 2026-05-01 13:40 | 49.17399 | 2.34512 | 6037 ft | 267 kts | 167° |
| 2026-05-01 13:41 | 49.15569 | 2.34450 | 6579 ft | 267 kts | 197° |
| 2026-05-01 13:41 | 49.13829 | 2.33406 | 7089 ft | 269 kts | 201° |
| 2026-05-01 13:41 | 49.12075 | 2.32366 | 7604 ft | 271 kts | 197° |
| 2026-05-01 13:41 | 49.10245 | 2.31694 | 8134 ft | 272 kts | 186° |
| 2026-05-01 13:42 | 49.08365 | 2.31472 | 8726 ft | 274 kts | 181° |
| 2026-05-01 13:42 | 49.06450 | 2.31339 | 9352 ft | 276 kts | 183° |
| 2026-05-01 13:42 | 49.04522 | 2.31085 | 10037 ft | 279 kts | 185° |
| 2026-05-01 13:42 | 49.02579 | 2.30781 | 10544 ft | 283 kts | 184° |
| 2026-05-01 13:43 | 49.00591 | 2.30503 | 10897 ft | 292 kts | 184° |
| 2026-05-01 13:43 | 48.98522 | 2.30235 | 11145 ft | 303 kts | 184° |
| 2026-05-01 13:43 | 48.96386 | 2.29950 | 11495 ft | 311 kts | 184° |
| 2026-05-01 13:43 | 48.94245 | 2.29655 | 11911 ft | 315 kts | 184° |
| 2026-05-01 13:44 | 48.92046 | 2.29354 | 12366 ft | 319 kts | 184° |
| 2026-05-01 13:44 | 48.89820 | 2.29054 | 12868 ft | 322 kts | 184° |
| 2026-05-01 13:44 | 48.87580 | 2.28752 | 13378 ft | 324 kts | 184° |
| 2026-05-01 13:44 | 48.85314 | 2.28446 | 13941 ft | 326 kts | 184° |
| 2026-05-01 13:45 | 48.83071 | 2.28142 | 14419 ft | 328 kts | 184° |
| 2026-05-01 13:45 | 48.80784 | 2.27834 | 14914 ft | 330 kts | 183° |
| 2026-05-01 13:45 | 48.78481 | 2.27524 | 15442 ft | 332 kts | 183° |
| 2026-05-01 13:45 | 48.76169 | 2.27213 | 15983 ft | 334 kts | 183° |
| 2026-05-01 13:46 | 48.73832 | 2.26898 | 16525 ft | 337 kts | 183° |
| 2026-05-01 13:46 | 48.71492 | 2.26583 | 17030 ft | 338 kts | 183° |
| 2026-05-01 13:46 | 48.69137 | 2.26267 | 17591 ft | 340 kts | 182° |
| 2026-05-01 13:46 | 48.66799 | 2.25954 | 18121 ft | 343 kts | 182° |
| 2026-05-01 13:47 | 48.64404 | 2.25633 | 18592 ft | 345 kts | 182° |
| 2026-05-01 13:47 | 48.62004 | 2.25312 | 19010 ft | 346 kts | 182° |
| 2026-05-01 13:47 | 48.59595 | 2.24989 | 19417 ft | 348 kts | 182° |
| 2026-05-01 13:47 | 48.57168 | 2.24665 | 19814 ft | 350 kts | 182° |
| 2026-05-01 13:48 | 48.54758 | 2.24343 | 20227 ft | 352 kts | 182° |
| 2026-05-01 13:48 | 48.52342 | 2.24021 | 20655 ft | 355 kts | 182° |
| 2026-05-01 13:48 | 48.49871 | 2.23692 | 21036 ft | 356 kts | 182° |
| 2026-05-01 13:48 | 48.47388 | 2.23361 | 21407 ft | 358 kts | 182° |
| 2026-05-01 13:49 | 48.44894 | 2.23030 | 21794 ft | 360 kts | 182° |
| 2026-05-01 13:49 | 48.42387 | 2.22697 | 22168 ft | 362 kts | 182° |
| 2026-05-01 13:49 | 48.39865 | 2.22362 | 22545 ft | 364 kts | 182° |
| 2026-05-01 13:49 | 48.37360 | 2.22030 | 22923 ft | 366 kts | 182° |
| 2026-05-01 13:50 | 48.34813 | 2.21693 | 23295 ft | 368 kts | 182° |
| 2026-05-01 13:50 | 48.32244 | 2.21353 | 23649 ft | 370 kts | 182° |
| 2026-05-01 13:50 | 48.29667 | 2.21060 | 23966 ft | 371 kts | 177° |
| 2026-05-01 13:50 | 48.27109 | 2.21404 | 24270 ft | 370 kts | 169° |
| 2026-05-01 13:51 | 48.24558 | 2.22032 | 24556 ft | 371 kts | 169° |
| 2026-05-01 13:51 | 48.22004 | 2.22660 | 24851 ft | 373 kts | 169° |
| 2026-05-01 13:51 | 48.19434 | 2.23283 | 25139 ft | 375 kts | 169° |
| 2026-05-01 13:51 | 48.16884 | 2.23899 | 25408 ft | 376 kts | 169° |
| 2026-05-01 13:52 | 48.14290 | 2.24528 | 25697 ft | 378 kts | 169° |
| 2026-05-01 13:52 | 48.11691 | 2.25160 | 25977 ft | 379 kts | 169° |
| 2026-05-01 13:52 | 48.09076 | 2.25792 | 26254 ft | 381 kts | 170° |
| 2026-05-01 13:52 | 48.06417 | 2.26103 | 26523 ft | 383 kts | 175° |
| 2026-05-01 13:53 | 48.03770 | 2.26258 | 26777 ft | 385 kts | 175° |
| 2026-05-01 13:53 | 47.98385 | 2.26611 | 27304 ft | 388 kts | 175° |
| 2026-05-01 13:53 | 47.95679 | 2.26784 | 27539 ft | 390 kts | 175° |
| 2026-05-01 13:54 | 47.92956 | 2.26954 | 27797 ft | 392 kts | 175° |
| 2026-05-01 13:54 | 47.90222 | 2.27127 | 28039 ft | 393 kts | 175° |
| 2026-05-01 13:54 | 47.87511 | 2.27301 | 28274 ft | 395 kts | 175° |
| 2026-05-01 13:54 | 47.84753 | 2.27480 | 28520 ft | 397 kts | 175° |
| 2026-05-01 13:55 | 47.81993 | 2.27776 | 28756 ft | 398 kts | 173° |
| 2026-05-01 13:55 | 47.79231 | 2.28168 | 28979 ft | 399 kts | 173° |
| 2026-05-01 13:55 | 47.76453 | 2.28506 | 29209 ft | 401 kts | 175° |
| 2026-05-01 13:55 | 47.73649 | 2.28788 | 29404 ft | 404 kts | 175° |
| 2026-05-01 13:56 | 47.70869 | 2.29084 | 29595 ft | 406 kts | 174° |
| 2026-05-01 13:56 | 47.68034 | 2.29419 | 29788 ft | 408 kts | 174° |
| 2026-05-01 13:56 | 47.65185 | 2.29753 | 29989 ft | 410 kts | 175° |
| 2026-05-01 13:56 | 47.62357 | 2.30066 | 30178 ft | 412 kts | 175° |
| 2026-05-01 13:57 | 47.59473 | 2.30383 | 30360 ft | 414 kts | 175° |
| 2026-05-01 13:57 | 47.57563 | 2.30598 | 30464 ft | 416 kts | 175° |
| 2026-05-01 13:57 | 47.53712 | 2.31037 | 30657 ft | 419 kts | 176° |
| 2026-05-01 13:57 | 47.50796 | 2.31364 | 30795 ft | 422 kts | 176° |
| 2026-05-01 13:58 | 47.47862 | 2.31690 | 30937 ft | 424 kts | 176° |
| 2026-05-01 13:58 | 47.44902 | 2.32022 | 31083 ft | 427 kts | 176° |
| 2026-05-01 13:58 | 47.41926 | 2.32356 | 31233 ft | 429 kts | 176° |
| 2026-05-01 13:58 | 47.38927 | 2.32691 | 31399 ft | 431 kts | 176° |
| 2026-05-01 13:59 | 47.35923 | 2.33026 | 31559 ft | 434 kts | 177° |
| 2026-05-01 13:59 | 47.32942 | 2.33358 | 31691 ft | 436 kts | 178° |
| 2026-05-01 13:59 | 47.29866 | 2.33699 | 31835 ft | 439 kts | 178° |
| 2026-05-01 13:59 | 47.26849 | 2.34036 | 31973 ft | 442 kts | 178° |
| 2026-05-01 14:00 | 47.23774 | 2.34378 | 32120 ft | 444 kts | 179° |
| 2026-05-01 14:00 | 47.20686 | 2.34719 | 32280 ft | 446 kts | 179° |
| 2026-05-01 14:00 | 47.17582 | 2.35063 | 32440 ft | 448 kts | 179° |
| 2026-05-01 14:00 | 47.14451 | 2.35412 | 32576 ft | 450 kts | 180° |
| 2026-05-01 14:01 | 47.11317 | 2.35758 | 32727 ft | 453 kts | 180° |
| 2026-05-01 14:01 | 47.08162 | 2.36105 | 32890 ft | 455 kts | 180° |
| 2026-05-01 14:01 | 47.05032 | 2.36451 | 33152 ft | 455 kts | 180° |
| 2026-05-01 14:01 | 47.01865 | 2.36802 | 33392 ft | 456 kts | 180° |
| 2026-05-01 14:02 | 46.98709 | 2.37149 | 33627 ft | 456 kts | 180° |
| 2026-05-01 14:02 | 46.95538 | 2.37496 | 33886 ft | 456 kts | 180° |
| 2026-05-01 14:02 | 46.92363 | 2.37845 | 34095 ft | 456 kts | 180° |
| 2026-05-01 14:02 | 46.89240 | 2.38188 | 34318 ft | 456 kts | 180° |
| 2026-05-01 14:03 | 46.86073 | 2.38535 | 34525 ft | 456 kts | 180° |
| 2026-05-01 14:03 | 46.82901 | 2.38882 | 34737 ft | 456 kts | 180° |
| 2026-05-01 14:03 | 46.79730 | 2.39228 | 34952 ft | 456 kts | 180° |
| 2026-05-01 14:03 | 46.76568 | 2.39574 | 35173 ft | 455 kts | 180° |
| 2026-05-01 14:04 | 46.73398 | 2.39919 | 35382 ft | 455 kts | 180° |
| 2026-05-01 14:04 | 46.70234 | 2.40264 | 35605 ft | 455 kts | 179° |
| 2026-05-01 14:04 | 46.67114 | 2.40603 | 35803 ft | 454 kts | 179° |
| 2026-05-01 14:04 | 46.64983 | 2.40835 | 35969 ft | 454 kts | 179° |
| 2026-05-01 14:05 | 46.60927 | 2.41275 | 36255 ft | 454 kts | 179° |
| 2026-05-01 14:05 | 46.57773 | 2.41617 | 36450 ft | 454 kts | 179° |
| 2026-05-01 14:05 | 46.54631 | 2.41957 | 36626 ft | 454 kts | 179° |
| 2026-05-01 14:05 | 46.51509 | 2.42294 | 36780 ft | 454 kts | 179° |
| 2026-05-01 14:06 | 46.48348 | 2.42636 | 36960 ft | 454 kts | 179° |
| 2026-05-01 14:06 | 46.45202 | 2.42975 | 37144 ft | 454 kts | 179° |
| 2026-05-01 14:06 | 46.42056 | 2.43314 | 37321 ft | 454 kts | 179° |
| 2026-05-01 14:06 | 46.38902 | 2.43653 | 37486 ft | 453 kts | 179° |
| 2026-05-01 14:07 | 46.35751 | 2.43992 | 37651 ft | 453 kts | 179° |
| 2026-05-01 14:07 | 46.32605 | 2.44330 | 37803 ft | 453 kts | 179° |
| 2026-05-01 14:07 | 46.29452 | 2.44668 | 37958 ft | 453 kts | 179° |
| 2026-05-01 14:08 | 46.23203 | 2.45338 | 38285 ft | 453 kts | 179° |
| 2026-05-01 14:08 | 46.20063 | 2.45673 | 38426 ft | 453 kts | 179° |
| 2026-05-01 14:08 | 46.16914 | 2.46009 | 38560 ft | 453 kts | 179° |
| 2026-05-01 14:08 | 46.13767 | 2.46345 | 38682 ft | 452 kts | 178° |
| 2026-05-01 14:09 | 46.10633 | 2.46679 | 38812 ft | 452 kts | 179° |
| 2026-05-01 14:09 | 46.07484 | 2.47014 | 38923 ft | 452 kts | 179° |
| 2026-05-01 14:09 | 46.04374 | 2.47345 | 39024 ft | 452 kts | 179° |
| 2026-05-01 14:10 | 45.98065 | 2.48014 | 39211 ft | 452 kts | 179° |
| 2026-05-01 14:10 | 45.91876 | 2.48671 | 39216 ft | 443 kts | 178° |
| 2026-05-01 14:11 | 45.85748 | 2.49316 | 39218 ft | 438 kts | 178° |
| 2026-05-01 14:11 | 45.76644 | 2.50275 | 39231 ft | 441 kts | 178° |
| 2026-05-01 14:12 | 45.71534 | 2.50812 | 39236 ft | 444 kts | 178° |
| 2026-05-01 14:12 | 45.65369 | 2.51459 | 39253 ft | 446 kts | 178° |
| 2026-05-01 14:13 | 45.59161 | 2.52108 | 39245 ft | 447 kts | 178° |
| 2026-05-01 14:13 | 45.52940 | 2.52758 | 39241 ft | 447 kts | 178° |
| 2026-05-01 14:14 | 45.46730 | 2.53405 | 39254 ft | 447 kts | 178° |
| 2026-05-01 14:14 | 45.40550 | 2.54047 | 39247 ft | 447 kts | 178° |
| 2026-05-01 14:15 | 45.34348 | 2.54690 | 39258 ft | 447 kts | 178° |
| 2026-05-01 14:15 | 45.28147 | 2.55331 | 39257 ft | 447 kts | 178° |
| 2026-05-01 14:16 | 45.21972 | 2.55970 | 39258 ft | 447 kts | 178° |
| 2026-05-01 14:16 | 45.15771 | 2.56608 | 39264 ft | 446 kts | 178° |
| 2026-05-01 14:17 | 45.09566 | 2.57246 | 39261 ft | 446 kts | 178° |
| 2026-05-01 14:17 | 45.03399 | 2.57878 | 39262 ft | 446 kts | 178° |
| 2026-05-01 14:18 | 44.97212 | 2.58513 | 39273 ft | 446 kts | 177° |
| 2026-05-01 14:18 | 44.91006 | 2.59145 | 39270 ft | 447 kts | 177° |
| 2026-05-01 14:19 | 44.84819 | 2.59777 | 39269 ft | 444 kts | 178° |
| 2026-05-01 14:19 | 44.78685 | 2.60401 | 39267 ft | 444 kts | 177° |
| 2026-05-01 14:20 | 44.69409 | 2.61341 | 39270 ft | 444 kts | 178° |
| 2026-05-01 14:21 | 44.63282 | 2.61960 | 39272 ft | 444 kts | 177° |
| 2026-05-01 14:21 | 44.57102 | 2.62584 | 39270 ft | 444 kts | 176° |
| 2026-05-01 14:22 | 44.47858 | 2.63515 | 39274 ft | 443 kts | 177° |
| 2026-05-01 14:22 | 44.41717 | 2.64132 | 39275 ft | 444 kts | 178° |
| 2026-05-01 14:23 | 44.35569 | 2.64748 | 39265 ft | 441 kts | 178° |
| 2026-05-01 14:23 | 44.29435 | 2.65360 | 39265 ft | 442 kts | 177° |
| 2026-05-01 14:24 | 44.23295 | 2.65974 | 39279 ft | 441 kts | 178° |
| 2026-05-01 14:24 | 44.17178 | 2.66583 | 39272 ft | 440 kts | 178° |
| 2026-05-01 14:25 | 44.11073 | 2.67189 | 39267 ft | 441 kts | 178° |
| 2026-05-01 14:25 | 44.04942 | 2.67797 | 39268 ft | 441 kts | 177° |
| 2026-05-01 14:26 | 43.95744 | 2.68707 | 39265 ft | 444 kts | 177° |
| 2026-05-01 14:27 | 43.89571 | 2.69317 | 39272 ft | 443 kts | 179° |
| 2026-05-01 14:27 | 43.83411 | 2.69922 | 39272 ft | 444 kts | 178° |
| 2026-05-01 14:28 | 43.74178 | 2.70829 | 39273 ft | 443 kts | 178° |
| 2026-05-01 14:28 | 43.68008 | 2.71433 | 39278 ft | 445 kts | 177° |
| 2026-05-01 14:29 | 43.61812 | 2.72038 | 39281 ft | 445 kts | 177° |
| 2026-05-01 14:30 | 43.49438 | 2.73244 | 39284 ft | 448 kts | 179° |
| 2026-05-01 14:31 | 43.40104 | 2.74150 | 39288 ft | 448 kts | 179° |
| 2026-05-01 14:31 | 43.33907 | 2.74751 | 39288 ft | 450 kts | 178° |
| 2026-05-01 14:32 | 43.27650 | 2.75354 | 39295 ft | 449 kts | 179° |
| 2026-05-01 14:32 | 43.21401 | 2.75958 | 39292 ft | 450 kts | 178° |
| 2026-05-01 14:33 | 43.15141 | 2.76559 | 39293 ft | 450 kts | 178° |
| 2026-05-01 14:33 | 43.08932 | 2.77156 | 39298 ft | 450 kts | 177° |
| 2026-05-01 14:34 | 43.02658 | 2.77757 | 39298 ft | 451 kts | 178° |
| 2026-05-01 14:34 | 42.96387 | 2.78357 | 39289 ft | 452 kts | 178° |
| 2026-05-01 14:35 | 42.90145 | 2.78953 | 39285 ft | 452 kts | 178° |
| 2026-05-01 14:35 | 42.83839 | 2.79554 | 39288 ft | 453 kts | 178° |
| 2026-05-01 14:36 | 42.77554 | 2.80151 | 39290 ft | 453 kts | 179° |
| 2026-05-01 14:36 | 42.71303 | 2.80745 | 39291 ft | 453 kts | 178° |
| 2026-05-01 14:37 | 42.65004 | 2.81340 | 39297 ft | 453 kts | 178° |
| 2026-05-01 14:37 | 42.58752 | 2.81931 | 39295 ft | 453 kts | 178° |
| 2026-05-01 14:38 | 42.52447 | 2.82525 | 39292 ft | 453 kts | 178° |
| 2026-05-01 14:38 | 42.46143 | 2.83114 | 39287 ft | 453 kts | 180° |
| 2026-05-01 14:39 | 42.39875 | 2.82597 | 39285 ft | 450 kts | 187° |
| 2026-05-01 14:39 | 42.33668 | 2.81872 | 39285 ft | 450 kts | 187° |
| 2026-05-01 14:40 | 42.27421 | 2.81150 | 39282 ft | 450 kts | 187° |
| 2026-05-01 14:40 | 42.21178 | 2.80422 | 39280 ft | 450 kts | 187° |
| 2026-05-01 14:41 | 42.14982 | 2.79707 | 39265 ft | 449 kts | 187° |
| 2026-05-01 14:41 | 42.08758 | 2.78986 | 39257 ft | 448 kts | 187° |
| 2026-05-01 14:42 | 42.02544 | 2.78270 | 39245 ft | 448 kts | 187° |
| 2026-05-01 14:42 | 41.96325 | 2.77554 | 39242 ft | 448 kts | 187° |
| 2026-05-01 14:43 | 41.90141 | 2.76961 | 39243 ft | 446 kts | 186° |
| 2026-05-01 14:43 | 41.83948 | 2.76411 | 39240 ft | 444 kts | 186° |
| 2026-05-01 14:44 | 41.77769 | 2.75912 | 39238 ft | 444 kts | 186° |
| 2026-05-01 14:44 | 41.68525 | 2.75140 | 39240 ft | 444 kts | 184° |
| 2026-05-01 14:45 | 41.59261 | 2.74742 | 39248 ft | 445 kts | 184° |
| 2026-05-01 14:46 | 41.53056 | 2.74493 | 39248 ft | 445 kts | 184° |
| 2026-05-01 14:46 | 41.43772 | 2.74101 | 39235 ft | 446 kts | 184° |
| 2026-05-01 14:47 | 41.37559 | 2.73847 | 39236 ft | 446 kts | 184° |
| 2026-05-01 14:48 | 41.28264 | 2.73460 | 39220 ft | 447 kts | 185° |
| 2026-05-01 14:48 | 41.18939 | 2.73075 | 39219 ft | 447 kts | 185° |
| 2026-05-01 14:49 | 41.06508 | 2.72563 | 39216 ft | 446 kts | 185° |
| 2026-05-01 14:50 | 40.94118 | 2.72054 | 39206 ft | 444 kts | 185° |
| 2026-05-01 14:51 | 40.84874 | 2.71676 | 39208 ft | 443 kts | 184° |
| 2026-05-01 14:52 | 40.75631 | 2.71301 | 39209 ft | 442 kts | 184° |
| 2026-05-01 14:53 | 40.66435 | 2.70928 | 39202 ft | 442 kts | 184° |
| 2026-05-01 14:53 | 40.60313 | 2.70680 | 39199 ft | 442 kts | 184° |
| 2026-05-01 14:54 | 40.54191 | 2.70434 | 39182 ft | 434 kts | 184° |
| 2026-05-01 14:54 | 40.51151 | 2.70314 | 38804 ft | 434 kts | 184° |
| 2026-05-01 14:54 | 40.48122 | 2.70193 | 37515 ft | 443 kts | 184° |
| 2026-05-01 14:54 | 40.45045 | 2.70067 | 36909 ft | 440 kts | 184° |
| 2026-05-01 14:55 | 40.42000 | 2.69942 | 35783 ft | 444 kts | 184° |
| 2026-05-01 14:55 | 40.38894 | 2.69812 | 34675 ft | 449 kts | 184° |
| 2026-05-01 14:55 | 40.35754 | 2.69679 | 33495 ft | 452 kts | 184° |
| 2026-05-01 14:55 | 40.32589 | 2.69544 | 32165 ft | 456 kts | 184° |
| 2026-05-01 14:56 | 40.29402 | 2.69406 | 31211 ft | 454 kts | 184° |
| 2026-05-01 14:56 | 40.26301 | 2.69273 | 30151 ft | 448 kts | 184° |
| 2026-05-01 14:56 | 40.23196 | 2.69140 | 28944 ft | 442 kts | 184° |
| 2026-05-01 14:56 | 40.20141 | 2.69009 | 27833 ft | 435 kts | 184° |
| 2026-05-01 14:57 | 40.17141 | 2.68959 | 27013 ft | 424 kts | 174° |
| 2026-05-01 14:57 | 40.12070 | 2.72097 | 26069 ft | 396 kts | 142° |
| 2026-05-01 14:57 | 40.09949 | 2.74402 | 24969 ft | 399 kts | 141° |
| 2026-05-01 14:58 | 40.07810 | 2.76699 | 23700 ft | 407 kts | 144° |
| 2026-05-01 14:58 | 40.05483 | 2.78805 | 22505 ft | 404 kts | 152° |
| 2026-05-01 14:58 | 40.03001 | 2.80482 | 21460 ft | 398 kts | 157° |
| 2026-05-01 14:58 | 40.00481 | 2.81948 | 20457 ft | 393 kts | 158° |
| 2026-05-01 14:59 | 39.98015 | 2.83432 | 19480 ft | 389 kts | 154° |
| 2026-05-01 14:59 | 39.95669 | 2.85064 | 18603 ft | 383 kts | 152° |
| 2026-05-01 14:59 | 39.93339 | 2.86717 | 17605 ft | 377 kts | 153° |
| 2026-05-01 14:59 | 39.91021 | 2.88254 | 16654 ft | 370 kts | 154° |
| 2026-05-01 15:00 | 39.87232 | 2.90733 | 15355 ft | 363 kts | 154° |
| 2026-05-01 15:00 | 39.84151 | 2.92208 | 14903 ft | 353 kts | 178° |
| 2026-05-01 15:00 | 39.82510 | 2.92048 | 14670 ft | 349 kts | 196° |
| 2026-05-01 15:01 | 39.80404 | 2.90658 | 14307 ft | 345 kts | 222° |
| 2026-05-01 15:01 | 39.78989 | 2.88176 | 13933 ft | 343 kts | 244° |
| 2026-05-01 15:01 | 39.78082 | 2.85299 | 13492 ft | 342 kts | 249° |
| 2026-05-01 15:01 | 39.77256 | 2.82451 | 13356 ft | 331 kts | 247° |
| 2026-05-01 15:02 | 39.76295 | 2.79743 | 12988 ft | 328 kts | 240° |
| 2026-05-01 15:02 | 39.75498 | 2.78093 | 12770 ft | 325 kts | 234° |
| 2026-05-01 15:02 | 39.73682 | 2.74966 | 12310 ft | 322 kts | 232° |
| 2026-05-01 15:02 | 39.72390 | 2.72641 | 11987 ft | 319 kts | 236° |
| 2026-05-01 15:03 | 39.71168 | 2.70237 | 11629 ft | 318 kts | 237° |
| 2026-05-01 15:03 | 39.69938 | 2.67843 | 11201 ft | 319 kts | 236° |
| 2026-05-01 15:03 | 39.68666 | 2.65453 | 10777 ft | 321 kts | 235° |
| 2026-05-01 15:03 | 39.67399 | 2.63083 | 10346 ft | 314 kts | 235° |
| 2026-05-01 15:04 | 39.66203 | 2.60816 | 9909 ft | 302 kts | 236° |
| 2026-05-01 15:04 | 39.65039 | 2.58604 | 9508 ft | 291 kts | 236° |
| 2026-05-01 15:04 | 39.63907 | 2.56464 | 9129 ft | 281 kts | 235° |
| 2026-05-01 15:04 | 39.62812 | 2.54401 | 8759 ft | 273 kts | 235° |
| 2026-05-01 15:05 | 39.61762 | 2.52420 | 8412 ft | 266 kts | 235° |
| 2026-05-01 15:05 | 39.60707 | 2.50431 | 7926 ft | 272 kts | 235° |
| 2026-05-01 15:05 | 39.59639 | 2.48419 | 7668 ft | 271 kts | 234° |
| 2026-05-01 15:05 | 39.58550 | 2.46367 | 7206 ft | 279 kts | 234° |
| 2026-05-01 15:06 | 39.57438 | 2.44276 | 6826 ft | 284 kts | 234° |
| 2026-05-01 15:06 | 39.56295 | 2.42161 | 6389 ft | 288 kts | 228° |
| 2026-05-01 15:06 | 39.54668 | 2.40707 | 5989 ft | 287 kts | 194° |
| 2026-05-01 15:06 | 39.52716 | 2.40660 | 5658 ft | 282 kts | 160° |
| 2026-05-01 15:07 | 39.51108 | 2.41935 | 5343 ft | 276 kts | 133° |
| 2026-05-01 15:07 | 39.49856 | 2.43713 | 5016 ft | 256 kts | 129° |
| 2026-05-01 15:07 | 39.48682 | 2.45335 | 4976 ft | 238 kts | 135° |
| 2026-05-01 15:07 | 39.47388 | 2.46670 | 4580 ft | 238 kts | 143° |
| 2026-05-01 15:08 | 39.46097 | 2.47978 | 4157 ft | 234 kts | 121° |
| 2026-05-01 15:08 | 39.45474 | 2.49860 | 3906 ft | 227 kts | 94° |
| 2026-05-01 15:08 | 39.45687 | 2.51863 | 3580 ft | 227 kts | 65° |
| 2026-05-01 15:08 | 39.46446 | 2.53663 | 3166 ft | 233 kts | 59° |
| 2026-05-01 15:09 | 39.47321 | 2.55436 | 2819 ft | 234 kts | 58° |
| 2026-05-01 15:09 | 39.48186 | 2.57216 | 2506 ft | 228 kts | 60° |
| 2026-05-01 15:09 | 39.48964 | 2.58853 | 2192 ft | 201 kts | 61° |
| 2026-05-01 15:09 | 39.49651 | 2.60325 | 1879 ft | 182 kts | 61° |
| 2026-05-01 15:10 | 39.50295 | 2.61686 | 1582 ft | 170 kts | 61° |
| 2026-05-01 15:10 | 39.51453 | 2.64144 | 829 ft | 150 kts | 62° |
| 2026-05-01 15:10 | 39.51987 | 2.65256 | 631 ft | 144 kts | 59° |
| 2026-05-01 15:11 | 39.52516 | 2.66307 | 657 ft | 138 kts | 60° |
| 2026-05-01 15:11 | 39.53542 | 2.68447 | 587 ft | 138 kts | 62° |
| 2026-05-01 15:11 | 39.54024 | 2.69501 | 354 ft | 135 kts | 63° |
| 2026-05-01 15:12 | 39.54486 | 2.70545 | 172 ft | 135 kts | 63° |
| 2026-05-01 15:12 | 39.55354 | 2.72415 | 39 ft | 88 kts | 58° |
| 2026-05-01 15:12 | 39.55607 | 2.72954 | 37 ft | 56 kts | 59° |
| 2026-05-01 15:13 | 39.55689 | 2.73558 | 39 ft | 0 kts | 217° |
| 2026-05-01 15:14 | 39.55680 | 2.73547 | 39 ft | 2 kts | 221° |
| 2026-05-01 15:14 | 39.55672 | 2.73534 | 39 ft | 4 kts | 231° |
| 2026-05-01 15:14 | 39.55564 | 2.73547 | 39 ft | 12 kts | 147° |
| 2026-05-01 15:15 | 39.55416 | 2.73660 | 39 ft | 13 kts | 147° |
| 2026-05-01 15:15 | 39.55223 | 2.73811 | 39 ft | 21 kts | 151° |
| 2026-05-01 15:16 | 39.54955 | 2.74023 | 39 ft | 21 kts | 148° |
| 2026-05-01 15:16 | 39.54777 | 2.74100 | 37 ft | 10 kts | 235° |
| 2026-05-01 15:17 | 39.54645 | 2.73826 | 39 ft | 24 kts | 237° |
| 2026-05-01 15:18 | 39.54677 | 2.73603 | 39 ft | 7 kts | 328° |
| 2026-05-01 15:18 | 39.54724 | 2.73575 | 39 ft | 3 kts | 5° |
| 2026-05-01 15:19 | 39.54756 | 2.73629 | 39 ft | 0 kts | 58° |